Time;durP1;ratioP1;P1;durP2;ratioP2;P2;SDS_P1;SDS_P2;PMS_P1;PMS_P2;Temp;Humidity;BMP_temperature;BMP_pressure;BME280_temperature;BME280_humidity;BME280_pressure;Samples;Min_cycle;Max_cycle;Signal;HPM_P1;HPM_P2
2021/04/23 00:00:55;;;;;;;10.50;4.93;;;6.60;51.10;;;5.11;51.94;96663.84;5012076;28;20057;-70
2021/04/23 00:03:30;;;;;;;8.23;4.78;;;6.60;51.80;;;5.02;51.21;96664.72;5029325;28;20069;-71
2021/04/23 00:06:17;;;;;;;12.55;5.45;;;6.50;51.60;;;4.97;51.77;96661.69;5029161;28;20033;-71
2021/04/23 00:08:47;;;;;;;13.02;5.70;;;6.50;51.70;;;4.89;50.44;96665.81;5029312;28;20033;-71
2021/04/23 00:11:13;;;;;;;12.52;5.40;;;6.50;52.20;;;4.86;50.25;96663.50;5013336;28;20413;-71
2021/04/23 00:13:39;;;;;;;13.52;5.70;;;6.40;52.50;;;4.83;50.73;96661.19;5028714;28;20108;-72
2021/04/23 00:16:05;;;;;;;10.45;5.45;;;6.40;52.90;;;4.80;51.04;96660.63;5012419;28;20026;-71
2021/04/23 00:18:31;;;;;;;10.77;5.57;;;6.40;53.00;;;4.75;51.19;96660.19;5012242;28;20050;-72
2021/04/23 00:20:56;;;;;;;13.23;5.30;;;6.30;53.10;;;4.71;51.18;96657.06;5028616;28;20030;-71
2021/04/23 00:23:22;;;;;;;17.38;5.60;;;6.20;53.40;;;4.67;51.52;96660.91;4996161;28;20037;-71
2021/04/23 00:25:48;;;;;;;9.68;5.45;;;6.20;53.00;;;4.63;51.65;96654.34;5045314;28;20057;-70
2021/04/23 00:28:14;;;;;;;12.57;5.45;;;6.20;52.90;;;4.62;51.42;96663.13;5011854;28;20122;-70
2021/04/23 00:30:50;;;;;;;11.80;5.35;;;6.10;52.80;;;4.58;52.44;96661.75;5012283;28;20495;-70
2021/04/23 00:33:16;;;;;;;11.45;5.18;;;6.10;52.90;;;4.54;51.55;96666.41;4997358;28;20030;-70
2021/04/23 00:35:44;;;;;;;11.88;5.25;;;6.10;53.00;;;4.51;52.02;96660.63;5011972;28;20045;-70
2021/04/23 00:38:20;;;;;;;10.50;5.40;;;6.10;53.30;;;4.50;52.56;96657.22;4996012;28;20068;-70
2021/04/23 00:41:01;;;;;;;10.60;5.13;;;6.00;54.10;;;4.47;54.54;96659.25;5043679;28;20041;-70
2021/04/23 00:43:30;;;;;;;9.25;5.22;;;5.90;54.50;;;4.41;53.14;96659.81;5003137;28;20116;-70
2021/04/23 00:45:56;;;;;;;12.23;5.38;;;5.90;54.60;;;4.37;52.37;96663.66;5010444;28;20033;-73
2021/04/23 00:48:22;;;;;;;10.65;5.10;;;5.90;54.70;;;4.29;52.75;96662.53;5000928;28;20052;-71
2021/04/23 00:51:01;;;;;;;9.07;4.95;;;5.80;55.00;;;4.25;54.50;96663.78;5008711;28;20046;-71
2021/04/23 00:53:29;;;;;;;8.80;4.93;;;5.70;55.10;;;4.18;53.23;96662.69;5009388;28;20075;-71
2021/04/23 00:55:57;;;;;;;11.80;5.38;;;5.70;54.60;;;4.16;53.44;96667.22;4995758;28;20420;-71
2021/04/23 00:58:26;;;;;;;12.10;4.95;;;5.70;54.50;;;4.15;53.62;96665.56;5011198;28;20493;-71
2021/04/23 01:00:55;;;;;;;9.45;5.10;;;5.70;54.90;;;4.12;53.86;96668.44;5011725;28;20044;-71
2021/04/23 01:03:22;;;;;;;9.93;4.88;;;5.70;55.10;;;4.13;53.75;96670.09;5027913;28;20037;-71
2021/04/23 01:05:48;;;;;;;10.70;5.07;;;5.70;55.50;;;4.11;53.72;96664.19;4995464;28;20068;-71
2021/04/23 01:08:14;;;;;;;7.65;4.93;;;5.70;55.50;;;4.08;53.65;96671.47;4995029;28;20041;-71
2021/04/23 01:10:40;;;;;;;7.35;4.40;;;5.60;55.40;;;4.05;54.16;96675.13;5027818;28;20033;-71
2021/04/23 01:13:06;;;;;;;14.00;4.75;;;5.60;55.10;;;4.00;53.73;96666.91;5028441;28;20034;-71
2021/04/23 01:15:31;;;;;;;7.47;4.22;;;5.60;55.20;;;3.97;54.03;96661.97;5027076;28;20033;-71
2021/04/23 01:17:57;;;;;;;9.88;5.03;;;5.60;55.90;;;3.96;54.45;96668.13;5011009;28;20048;-71
2021/04/23 01:20:24;;;;;;;10.82;4.90;;;5.60;55.80;;;3.92;54.25;96669.38;4995119;28;20120;-71
2021/04/23 01:22:49;;;;;;;9.48;4.57;;;5.50;55.60;;;3.87;54.50;96672.38;5010881;28;20048;-71
2021/04/23 01:25:16;;;;;;;8.45;5.22;;;5.50;55.60;;;3.84;54.84;96670.00;5028209;28;20120;-71
2021/04/23 01:27:42;;;;;;;10.40;5.00;;;5.50;55.80;;;3.83;54.59;96667.53;5010383;28;21827;-71
2021/04/23 01:30:11;;;;;;;9.93;5.00;;;5.40;55.80;;;3.81;54.86;96677.25;5011441;28;20026;-71
2021/04/23 01:32:37;;;;;;;9.80;4.85;;;5.40;56.30;;;3.78;54.90;96677.53;4994941;28;20133;-72
2021/04/23 01:35:05;;;;;;;11.55;5.82;;;5.40;56.20;;;3.75;54.72;96677.81;5010830;28;20096;-72
2021/04/23 01:37:31;;;;;;;8.93;5.00;;;5.40;55.80;;;3.72;54.98;96672.88;4994148;28;20509;-71
2021/04/23 01:39:56;;;;;;;10.75;5.35;;;5.30;56.50;;;3.66;55.17;96675.03;4994080;28;20060;-71
2021/04/23 01:42:23;;;;;;;10.70;5.00;;;5.30;56.80;;;3.66;55.52;96680.25;5043989;28;21610;-71
2021/04/23 01:44:49;;;;;;;9.77;5.00;;;5.30;57.00;;;3.66;55.64;96676.81;5010304;28;20409;-71
2021/04/23 01:47:14;;;;;;;10.27;5.20;;;5.30;56.80;;;3.64;55.56;96679.56;5011027;28;20029;-72
2021/04/23 01:49:40;;;;;;;9.85;5.28;;;5.30;56.60;;;3.63;55.04;96685.72;5026949;28;20036;-71
2021/04/23 01:52:13;;;;;;;10.00;4.93;;;5.20;56.50;;;3.62;55.83;96684.06;5027201;28;20030;-70
2021/04/23 01:54:39;;;;;;;11.93;5.13;;;5.20;56.60;;;3.58;55.26;96687.88;4995108;28;20061;-70
2021/04/23 01:57:05;;;;;;;9.52;4.40;;;5.20;56.10;;;3.53;55.11;96690.03;5010773;28;20037;-70
2021/04/23 01:59:31;;;;;;;10.70;5.05;;;5.10;56.40;;;3.52;55.67;96695.38;5020056;28;20026;-71
2021/04/23 02:01:58;;;;;;;8.50;4.55;;;5.10;56.50;;;3.51;55.98;96685.94;5025694;28;20029;-71
2021/04/23 02:04:24;;;;;;;9.45;5.05;;;5.10;56.90;;;3.49;56.03;96688.66;5009672;28;20029;-71
2021/04/23 02:06:49;;;;;;;8.07;4.72;;;5.10;57.50;;;3.49;56.64;96693.03;5010462;28;20041;-71
2021/04/23 02:09:15;;;;;;;9.48;4.50;;;5.10;58.00;;;3.46;56.50;96694.13;5010641;28;20094;-71
2021/04/23 02:11:43;;;;;;;8.88;4.88;;;5.10;58.10;;;3.41;56.80;96688.50;5009630;28;20033;-71
2021/04/23 02:14:08;;;;;;;19.90;5.07;;;5.00;57.90;;;3.36;56.11;96694.06;5010335;28;20029;-71
2021/04/23 02:16:34;;;;;;;11.35;5.50;;;5.10;57.30;;;3.38;56.68;96696.53;4993381;28;20050;-71
2021/04/23 02:19:00;;;;;;;12.15;5.28;;;5.10;57.00;;;3.34;56.43;96688.19;5026279;28;20064;-71
2021/04/23 02:21:26;;;;;;;8.35;5.00;;;5.00;57.50;;;3.34;56.33;96692.56;5010057;28;20509;-72
2021/04/23 02:23:52;;;;;;;9.57;5.07;;;4.90;57.90;;;3.29;56.77;96689.53;5010429;28;20393;-71
2021/04/23 02:26:20;;;;;;;9.13;5.20;;;4.90;58.20;;;3.23;56.67;96692.66;4993510;28;20137;-71
2021/04/23 02:28:48;;;;;;;13.07;5.90;;;4.80;58.00;;;3.18;56.92;96689.63;5026131;28;20044;-71
2021/04/23 02:31:17;;;;;;;12.18;5.55;;;4.80;57.80;;;3.14;56.50;96680.41;5009881;28;20420;-70
2021/04/23 02:33:44;;;;;;;10.63;5.38;;;4.70;58.00;;;3.10;57.05;96687.63;5026136;28;20468;-72
2021/04/23 02:36:10;;;;;;;11.57;5.47;;;4.70;58.00;;;3.11;57.17;96688.47;5026151;28;20034;-71
2021/04/23 02:38:36;;;;;;;8.48;5.18;;;4.80;58.20;;;3.10;57.43;96692.03;4993437;28;20136;-71
2021/04/23 02:41:02;;;;;;;17.00;9.70;;;4.80;58.40;;;3.10;57.67;96692.03;5043641;28;20033;-71
2021/04/23 02:43:31;;;;;;;51.42;32.28;;;4.80;58.90;;;3.10;57.90;96697.22;5025276;28;20038;-72
2021/04/23 02:45:57;;;;;;;37.17;24.95;;;4.80;58.50;;;3.09;57.31;96696.41;4994082;28;20045;-71
2021/04/23 02:48:24;;;;;;;26.67;16.83;;;4.70;57.90;;;3.07;56.78;96699.13;5009619;28;20052;-70
2021/04/23 02:50:53;;;;;;;42.08;28.88;;;4.70;57.20;;;3.04;57.01;96699.38;4993896;28;20033;-70
2021/04/23 02:53:19;;;;;;;55.92;40.70;;;4.70;57.80;;;3.02;57.11;96696.09;5006984;28;20037;-66
2021/04/23 02:55:45;;;;;;;32.53;22.60;;;4.70;58.00;;;2.99;56.72;96690.31;5009031;28;20512;-66
2021/04/23 02:58:14;;;;;;;13.82;7.00;;;4.60;58.00;;;2.98;57.44;96694.69;5025093;28;20555;-65
2021/04/23 03:00:43;;;;;;;15.07;5.30;;;4.60;58.10;;;2.97;57.67;96693.06;5027660;28;20353;-69
2021/04/23 03:03:09;;;;;;;8.07;4.63;;;4.60;58.20;;;2.97;56.83;96687.84;5006465;28;20083;-69
2021/04/23 03:05:35;;;;;;;13.75;5.65;;;4.60;58.10;;;2.96;57.80;96695.78;5018814;28;20034;-68
2021/04/23 03:08:02;;;;;;;12.85;5.50;;;4.60;58.20;;;2.89;57.11;96692.84;5035660;28;20040;-68
2021/04/23 03:10:31;;;;;;;12.52;5.30;;;4.50;58.30;;;2.87;57.71;96692.16;5008029;28;20033;-68
2021/04/23 03:12:58;;;;;;;11.88;5.40;;;4.50;58.60;;;2.84;57.49;96696.78;5016766;28;20261;-68
2021/04/23 03:15:27;;;;;;;12.38;5.03;;;4.40;58.00;;;2.79;57.98;96684.19;4990462;28;20227;-72
2021/04/23 03:17:56;;;;;;;11.95;5.60;;;4.40;58.20;;;2.78;57.29;96687.72;5023985;28;20038;-71
2021/04/23 03:20:24;;;;;;;10.82;5.40;;;4.50;58.10;;;2.76;57.27;96687.03;5025508;28;20481;-71
2021/04/23 03:22:50;;;;;;;10.57;5.70;;;4.50;58.30;;;2.72;57.73;96681.28;4993070;28;20120;-72
2021/04/23 03:25:16;;;;;;;11.15;5.45;;;4.40;58.40;;;2.73;58.45;96687.28;5007073;28;20036;-71
2021/04/23 03:27:42;;;;;;;10.15;5.05;;;4.40;58.90;;;2.72;57.53;96693.44;5007760;28;20022;-72
2021/04/23 03:30:14;;;;;;;11.57;4.90;;;4.40;59.00;;;2.71;58.89;96681.38;5025051;28;20065;-72
2021/04/23 03:32:40;;;;;;;23.92;13.90;;;4.40;59.20;;;2.70;58.47;96682.31;5009464;28;20033;-72
2021/04/23 03:35:07;;;;;;;15.80;9.18;;;4.50;59.70;;;2.70;58.66;96690.94;5025568;28;20202;-72
2021/04/23 03:37:32;;;;;;;20.52;12.90;;;4.50;59.50;;;2.69;58.91;96686.69;4991533;28;20048;-71
2021/04/23 03:39:58;;;;;;;13.80;6.50;;;4.60;60.20;;;2.72;58.86;96688.25;5008819;28;20065;-70
2021/04/23 03:42:24;;;;;;;17.25;6.18;;;4.50;59.70;;;2.71;59.12;96683.97;5008615;28;20060;-72
2021/04/23 03:44:50;;;;;;;10.35;5.28;;;4.60;59.50;;;2.73;59.47;96689.88;5008577;28;20107;-72
2021/04/23 03:47:15;;;;;;;10.93;5.35;;;4.60;59.90;;;2.72;58.33;96693.44;5008785;28;20052;-72
2021/04/23 03:49:43;;;;;;;13.50;5.50;;;4.50;59.60;;;2.69;58.86;96698.84;5025155;28;20088;-71
2021/04/23 03:52:09;;;;;;;9.35;5.40;;;4.30;60.30;;;2.65;59.26;96702.66;5025049;28;20281;-71
2021/04/23 03:54:36;;;;;;;10.77;5.53;;;4.20;60.70;;;2.57;59.27;96699.88;5008415;28;20144;-72
2021/04/23 03:57:02;;;;;;;7.85;4.68;;;4.20;61.20;;;2.52;59.50;96702.03;4991738;28;20053;-73
2021/04/23 03:59:28;;;;;;;23.52;5.72;;;4.10;61.70;;;2.40;59.93;96699.44;5024553;28;20064;-73
2021/04/23 04:01:54;;;;;;;9.82;5.25;;;3.90;62.70;;;2.37;59.76;96699.69;5008883;28;20084;-72
2021/04/23 04:04:19;;;;;;;10.10;5.07;;;3.90;63.10;;;2.29;60.21;96707.28;5024442;28;20041;-73
2021/04/23 04:06:46;;;;;;;8.85;5.20;;;3.80;63.30;;;2.22;60.29;96708.72;5005495;28;20030;-73
2021/04/23 04:09:12;;;;;;;10.60;5.25;;;3.90;63.50;;;2.17;61.25;96700.47;5023060;28;20040;-76
2021/04/23 04:11:37;;;;;;;16.70;9.50;;;3.90;63.80;;;2.16;61.49;96706.63;4993241;28;20140;-74
2021/04/23 04:14:03;;;;;;;19.65;12.55;;;3.90;64.90;;;2.15;61.26;96707.56;5025807;28;20053;-69
2021/04/23 04:16:29;;;;;;;15.32;5.80;;;3.90;64.40;;;2.10;61.89;96707.94;5008263;28;20082;-75
2021/04/23 04:18:55;;;;;;;10.73;5.82;;;3.70;64.20;;;2.04;62.26;96713.63;5008452;28;20034;-69
2021/04/23 04:21:21;;;;;;;10.73;5.47;;;3.60;64.40;;;2.02;61.63;96709.47;5027219;28;20128;-69
2021/04/23 04:23:47;;;;;;;10.15;5.47;;;3.60;64.50;;;2.03;61.30;96713.72;5029168;28;20049;-69
2021/04/23 04:26:12;;;;;;;12.02;5.95;;;3.70;64.50;;;2.03;61.91;96721.50;5011520;28;20030;-68
2021/04/23 04:28:38;;;;;;;10.75;5.00;;;3.80;64.40;;;2.03;61.64;96711.13;4979395;28;20053;-69
2021/04/23 04:31:04;;;;;;;11.10;4.90;;;3.80;64.10;;;2.03;61.79;96714.53;5012256;28;20088;-68
2021/04/23 04:33:30;;;;;;;13.77;5.47;;;3.80;64.10;;;2.05;61.45;96720.44;4995236;28;20030;-67
2021/04/23 04:35:55;;;;;;;11.73;6.40;;;3.80;64.10;;;2.05;62.44;96724.81;5022909;28;20037;-66
2021/04/23 04:38:21;;;;;;;11.07;5.82;;;3.80;64.10;;;2.07;61.94;96728.13;5023483;28;20136;-67
2021/04/23 04:40:49;;;;;;;12.10;6.40;;;3.90;64.10;;;2.10;62.61;96736.47;5006049;28;20069;-70
2021/04/23 04:43:15;;;;;;;12.00;6.38;;;3.90;64.00;;;2.12;62.41;96729.38;4995145;28;20040;-67
2021/04/23 04:45:41;;;;;;;12.70;7.03;;;4.00;64.00;;;2.14;61.81;96732.69;5026146;28;20056;-72
2021/04/23 04:48:07;;;;;;;11.98;6.70;;;4.00;64.10;;;2.18;62.18;96740.22;4994819;28;20497;-69
2021/04/23 04:50:39;;;;;;;8.65;5.43;;;4.00;64.00;;;2.20;62.88;96744.34;5010173;28;20574;-71
2021/04/23 04:53:06;;;;;;;11.13;5.78;;;4.00;64.00;;;2.17;62.50;96742.00;5013659;28;20504;-71
2021/04/23 04:55:35;;;;;;;15.15;6.38;;;4.10;64.10;;;2.23;62.99;96749.28;5013591;28;20053;-70
2021/04/23 04:58:02;;;;;;;12.27;6.35;;;4.10;64.00;;;2.26;63.01;96756.84;5009491;28;20119;-70
2021/04/23 05:00:28;;;;;;;11.77;6.00;;;4.10;63.90;;;2.28;62.82;96760.16;5013347;28;20045;-69
2021/04/23 05:02:55;;;;;;;11.77;6.65;;;4.10;64.00;;;2.32;62.89;96768.53;5027097;28;20033;-69
2021/04/23 05:05:20;;;;;;;10.13;6.13;;;4.20;64.20;;;2.34;63.17;96764.84;5007354;28;20120;-68
2021/04/23 05:07:46;;;;;;;12.90;5.65;;;4.20;64.40;;;2.38;63.39;96773.22;5025095;28;20493;-68
2021/04/23 05:10:12;;;;;;;10.93;7.32;;;4.20;64.50;;;2.41;63.33;96779.00;5012900;28;20469;-68
2021/04/23 05:12:38;;;;;;;13.63;6.50;;;4.30;64.40;;;2.44;63.14;96781.34;5029775;28;20037;-68
2021/04/23 05:15:07;;;;;;;13.07;6.70;;;4.30;64.40;;;2.48;63.21;96779.31;5012091;28;20038;-69
2021/04/23 05:17:33;;;;;;;12.10;6.43;;;4.40;64.50;;;2.52;63.59;96779.94;4980127;28;20030;-68
2021/04/23 05:19:59;;;;;;;12.07;6.00;;;4.50;64.80;;;2.58;63.24;96779.44;5028783;28;20049;-68
2021/04/23 05:22:24;;;;;;;11.93;6.30;;;4.50;64.30;;;2.62;63.37;96796.41;4996578;28;20034;-69
2021/04/23 05:24:50;;;;;;;10.80;6.05;;;4.60;64.50;;;2.69;63.79;96779.38;5029425;28;20061;-70
2021/04/23 05:27:16;;;;;;;12.60;6.53;;;4.70;64.10;;;2.75;63.18;96784.91;5011637;28;20172;-69
2021/04/23 05:29:42;;;;;;;12.95;6.40;;;4.70;63.70;;;2.84;62.93;96795.50;4992370;28;20058;-69
2021/04/23 05:32:07;;;;;;;13.35;7.30;;;4.80;63.30;;;2.92;63.33;96793.09;5009359;28;20124;-70
2021/04/23 05:34:33;;;;;;;10.10;5.68;;;5.00;62.50;;;3.04;63.06;96798.16;5011705;28;20445;-69
2021/04/23 05:36:59;;;;;;;8.27;5.35;;;5.10;61.50;;;3.16;62.15;96800.69;4992108;28;20052;-70
2021/04/23 05:39:25;;;;;;;9.82;5.28;;;5.30;60.60;;;3.25;62.03;96794.72;4978283;28;20091;-69
2021/04/23 05:41:51;;;;;;;11.02;5.53;;;5.40;59.60;;;3.39;61.59;96797.00;5012885;28;20021;-69
2021/04/23 05:44:17;;;;;;;9.52;5.30;;;5.60;59.40;;;3.53;61.21;96799.28;5028463;28;20040;-68
2021/04/23 05:46:43;;;;;;;20.38;12.18;;;5.80;58.60;;;3.66;60.78;96805.13;5028631;28;20528;-69
2021/04/23 05:49:08;;;;;;;19.75;9.23;;;5.90;58.20;;;3.81;60.94;96810.78;5011880;28;20037;-69
2021/04/23 05:51:34;;;;;;;22.38;11.13;;;6.00;57.50;;;3.95;60.20;96814.84;5029400;28;20106;-69
2021/04/23 05:54:00;;;;;;;23.73;11.93;;;6.10;57.40;;;4.06;59.90;96809.53;5028586;28;20104;-69
2021/04/23 05:56:26;;;;;;;17.75;10.40;;;6.30;56.70;;;4.20;60.10;96814.41;5011977;28;20040;-69
2021/04/23 05:58:53;;;;;;;24.67;9.05;;;6.50;56.20;;;4.35;59.92;96814.03;5016846;28;20045;-68
2021/04/23 06:01:20;;;;;;;15.57;6.75;;;6.70;55.90;;;4.53;59.13;96812.44;5012184;28;20029;-69
2021/04/23 06:03:49;;;;;;;15.07;6.03;;;6.90;54.00;;;4.66;58.26;96820.81;5027997;28;20052;-70
2021/04/23 06:06:15;;;;;;;11.52;5.65;;;7.10;53.40;;;4.84;58.27;96821.81;5012315;28;20042;-70
2021/04/23 06:08:41;;;;;;;20.08;6.07;;;7.30;52.40;;;4.98;57.53;96819.75;5028109;28;20124;-69
2021/04/23 06:11:13;;;;;;;12.68;5.80;;;7.50;51.80;;;5.15;57.10;96821.69;4979616;28;20048;-70
2021/04/23 06:13:41;;;;;;;13.75;5.63;;;7.70;50.80;;;5.34;57.04;96826.91;5008198;28;20034;-70
2021/04/23 06:16:07;;;;;;;15.52;6.80;;;8.00;50.20;;;5.54;56.24;96823.31;5013241;28;20029;-69
2021/04/23 06:18:32;;;;;;;10.35;5.10;;;8.20;48.60;;;5.72;55.91;96819.97;4994922;28;20041;-70
2021/04/23 06:20:58;;;;;;;11.38;4.47;;;8.50;47.80;;;5.88;55.33;96827.19;4995531;28;20123;-71
2021/04/23 06:23:24;;;;;;;9.93;4.50;;;8.60;47.50;;;6.05;54.46;96829.94;5027881;28;20507;-72
2021/04/23 06:25:49;;;;;;;13.13;4.80;;;8.70;47.00;;;6.18;54.16;96826.19;5028962;28;20569;-70
2021/04/23 06:28:15;;;;;;;14.35;5.00;;;8.90;46.40;;;6.33;53.81;96824.72;5026029;28;20025;-73
2021/04/23 06:30:41;;;;;;;10.13;3.80;;;9.10;45.70;;;6.49;53.69;96826.72;5019587;28;20438;-72
2021/04/23 06:33:22;;;;;;;10.07;3.85;;;9.40;45.10;;;6.64;54.30;96826.09;5000517;28;20506;-71
2021/04/23 06:35:48;;;;;;;10.75;4.07;;;9.60;45.70;;;6.81;53.62;96821.88;5027919;28;20056;-68
2021/04/23 06:38:14;;;;;;;13.25;4.20;;;9.80;47.00;;;6.95;53.58;96818.72;5001460;28;20042;-71
2021/04/23 06:40:40;;;;;;;10.13;3.90;;;9.90;46.10;;;7.13;53.23;96829.22;4999152;28;20065;-71
2021/04/23 06:43:06;;;;;;;8.25;3.58;;;10.10;45.20;;;7.30;53.01;96824.94;5011206;28;20030;-70
2021/04/23 06:45:31;;;;;;;8.57;3.13;;;10.40;43.90;;;7.45;52.67;96828.66;5010937;28;20547;-68
2021/04/23 06:47:57;;;;;;;12.63;4.28;;;10.60;43.00;;;7.62;52.52;96834.84;5010446;28;20037;-71
2021/04/23 06:50:23;;;;;;;13.65;4.43;;;10.80;42.70;;;7.78;51.30;96847.25;5011149;28;20037;-72
2021/04/23 06:52:49;;;;;;;9.88;3.22;;;11.10;41.40;;;7.91;51.60;96840.59;5011001;28;20456;-69
2021/04/23 06:55:16;;;;;;;14.77;3.00;;;11.10;40.60;;;8.08;50.78;96838.09;5011541;28;20041;-68
2021/04/23 06:57:42;;;;;;;8.25;2.90;;;11.20;40.10;;;8.24;50.56;96838.19;5010341;28;20026;-68
2021/04/23 07:00:17;;;;;;;6.53;2.47;;;11.50;39.30;;;8.44;47.94;96841.44;5011135;28;20036;-67
2021/04/23 07:02:43;;;;;;;11.45;3.10;;;11.70;39.00;;;8.58;49.62;96836.41;5027586;28;20021;-68
2021/04/23 07:05:10;;;;;;;9.10;3.08;;;11.70;39.30;;;8.73;49.18;96841.88;5028890;28;20377;-69
2021/04/23 07:07:35;;;;;;;9.05;3.05;;;12.00;38.60;;;8.93;49.07;96837.16;5009927;28;20030;-67
2021/04/23 07:10:03;;;;;;;7.28;3.55;;;12.30;38.40;;;9.11;48.67;96834.44;5010781;28;20068;-71
2021/04/23 07:12:29;;;;;;;9.43;2.80;;;12.50;37.90;;;9.29;48.28;96836.91;5011264;28;20048;-71
2021/04/23 07:14:54;;;;;;;11.25;3.40;;;12.70;37.20;;;9.49;48.46;96835.59;5027540;28;20057;-72
2021/04/23 07:17:20;;;;;;;9.13;3.40;;;13.00;37.20;;;9.68;47.87;96843.16;5043058;28;20037;-71
2021/04/23 07:19:47;;;;;;;10.35;3.45;;;13.10;36.30;;;9.89;47.22;96839.19;5027045;28;20120;-72
2021/04/23 07:22:17;;;;;;;8.13;2.90;;;13.60;36.10;;;10.16;44.78;96840.63;5024651;28;20033;-72
2021/04/23 07:24:44;;;;;;;7.88;2.92;;;14.00;35.10;;;10.45;45.94;96840.09;5011404;28;20111;-69
2021/04/23 07:27:09;;;;;;;8.00;2.75;;;14.50;34.40;;;10.73;46.93;96844.72;5026158;28;20037;-72
2021/04/23 07:29:36;;;;;;;9.20;2.92;;;14.80;33.10;;;10.96;45.90;96842.16;5009923;28;20103;-70
2021/04/23 07:32:01;;;;;;;8.40;2.58;;;15.00;32.90;;;11.20;44.62;96843.00;5043293;28;20523;-75
2021/04/23 07:34:27;;;;;;;7.22;2.45;;;15.20;32.60;;;11.50;44.55;96842.13;5010175;28;20050;-70
2021/04/23 07:36:53;;;;;;;7.95;2.53;;;15.60;31.90;;;11.81;44.16;96857.91;5010473;28;20041;-69
2021/04/23 07:39:21;;;;;;;8.23;2.40;;;16.10;30.30;;;12.13;43.70;96854.13;5027415;28;20448;-70
2021/04/23 07:41:50;;;;;;;5.90;2.28;;;16.50;30.40;;;12.46;42.54;96849.34;5027166;28;20102;-73
2021/04/23 07:44:16;;;;;;;6.60;2.38;;;16.90;28.40;;;12.69;42.94;96846.59;5026372;28;20053;-73
2021/04/23 07:46:41;;;;;;;8.13;2.35;;;17.10;29.70;;;12.97;42.39;96851.22;5010247;28;20117;-70
2021/04/23 07:49:07;;;;;;;7.90;2.35;;;17.40;29.30;;;13.26;41.64;96848.50;4972478;28;20418;-71
2021/04/23 07:51:33;;;;;;;10.30;2.40;;;17.70;27.90;;;13.46;41.41;96838.16;5016390;28;20497;-71
2021/04/23 07:53:58;;;;;;;9.00;2.25;;;17.80;27.20;;;13.69;40.38;96841.41;5026385;28;20139;-72
2021/04/23 07:56:24;;;;;;;7.05;2.35;;;18.10;27.60;;;13.91;39.89;96841.38;5027222;28;20038;-69
2021/04/23 07:58:50;;;;;;;6.35;2.47;;;18.00;26.90;;;14.12;39.43;96845.81;5024911;28;20037;-68
2021/04/23 08:01:15;;;;;;;5.18;1.98;;;18.30;26.90;;;14.35;39.63;96833.16;5031264;28;20037;-70
2021/04/23 08:03:41;;;;;;;6.50;2.13;;;18.60;25.80;;;14.61;38.63;96841.28;5029219;28;20073;-69
2021/04/23 08:06:07;;;;;;;6.50;2.22;;;18.90;26.60;;;14.90;38.82;96844.66;5030565;28;20030;-70
2021/04/23 08:08:33;;;;;;;9.15;1.80;;;19.30;24.90;;;15.11;37.00;96847.19;5029780;28;20061;-69
2021/04/23 08:10:58;;;;;;;7.45;2.00;;;19.40;24.40;;;15.35;38.11;96850.31;5015864;28;20033;-69
2021/04/23 08:13:24;;;;;;;6.85;2.30;;;19.80;25.10;;;15.53;36.96;96835.47;5012592;28;20044;-70
2021/04/23 08:15:50;;;;;;;7.93;2.35;;;19.70;24.00;;;15.72;37.68;96839.19;5012308;28;20125;-72
2021/04/23 08:18:17;;;;;;;8.20;2.25;;;20.10;25.10;;;15.89;35.84;96845.75;5027774;28;20112;-71
2021/04/23 08:20:42;;;;;;;11.52;2.65;;;20.50;24.60;;;16.08;36.76;96849.41;5030376;28;20483;-73
2021/04/23 08:23:08;;;;;;;13.75;2.63;;;20.60;23.70;;;16.15;35.73;96844.09;5030664;28;20038;-72
2021/04/23 08:25:34;;;;;;;9.43;2.80;;;20.60;23.10;;;16.23;35.19;96847.34;5029795;28;20069;-71
2021/04/23 08:27:59;;;;;;;6.85;2.22;;;20.70;23.50;;;16.37;35.48;96842.84;5030177;28;20140;-72
2021/04/23 08:30:27;;;;;;;11.40;2.88;;;21.00;23.80;;;16.49;35.38;96841.16;5011504;28;20099;-72
2021/04/23 08:32:53;;;;;;;7.97;2.72;;;21.10;23.10;;;16.66;34.63;96840.72;4996802;28;20064;-68
2021/04/23 08:35:19;;;;;;;9.38;2.80;;;21.30;23.90;;;16.79;34.35;96854.00;5012928;28;20040;-71
2021/04/23 08:37:44;;;;;;;7.93;2.47;;;21.60;23.60;;;16.95;34.08;96845.56;4996518;28;20041;-67
2021/04/23 08:40:12;;;;;;;8.35;3.05;;;21.70;22.70;;;17.04;33.93;96849.63;5017569;28;20127;-67
2021/04/23 08:42:37;;;;;;;11.82;4.82;;;21.50;21.90;;;17.10;33.41;96854.09;5023133;28;20025;-66
2021/04/23 08:45:10;;;;;;;8.43;2.90;;;21.40;22.20;;;17.25;31.21;96839.72;5017572;28;20125;-72
2021/04/23 08:47:37;;;;;;;11.07;2.78;;;22.10;22.80;;;17.41;32.13;96844.50;5013126;28;20033;-69
2021/04/23 08:50:03;;;;;;;9.00;2.80;;;22.10;21.90;;;17.58;32.69;96845.63;5012868;28;20033;-68
2021/04/23 08:52:29;;;;;;;7.88;2.70;;;22.40;21.10;;;17.71;32.19;96834.94;4977370;28;20455;-68
2021/04/23 08:54:55;;;;;;;9.40;2.85;;;22.10;22.30;;;17.87;32.77;96827.44;5008301;28;20042;-71
2021/04/23 08:57:21;;;;;;;7.50;3.10;;;22.20;22.20;;;18.08;31.99;96832.38;5000260;28;20035;-73
2021/04/23 08:59:46;;;;;;;7.65;3.05;;;22.40;21.60;;;18.30;31.93;96838.94;5029081;28;20132;-73
2021/04/23 09:02:12;;;;;;;8.32;2.55;;;22.90;21.90;;;18.50;31.90;96837.94;5012852;28;20030;-72
2021/04/23 09:04:38;;;;;;;6.65;2.58;;;22.80;21.60;;;18.66;31.42;96832.06;5031400;28;20636;-71
2021/04/23 09:07:06;;;;;;;6.50;2.83;;;22.90;21.70;;;18.72;30.31;96841.03;5027769;28;20513;-66
2021/04/23 09:09:44;;;;;;;9.70;3.00;;;22.60;21.60;;;18.85;28.99;96831.03;5027613;28;20482;-66
2021/04/23 09:12:20;;;;;;;8.65;3.40;;;23.10;21.70;;;19.05;28.54;96830.00;5029258;28;20041;-70
2021/04/23 09:14:46;;;;;;;7.95;2.70;;;23.40;21.80;;;19.33;30.53;96829.41;5029698;28;20080;-69
2021/04/23 09:17:19;;;;;;;6.38;2.58;;;23.50;20.40;;;19.50;29.64;96830.41;5027582;28;20037;-69
2021/04/23 09:19:44;;;;;;;8.80;3.00;;;23.60;21.40;;;19.63;29.66;96832.91;5011786;28;20048;-69
2021/04/23 09:22:28;;;;;;;5.00;2.75;;;23.30;20.00;;;19.75;27.58;96830.28;5028240;28;20034;-68
2021/04/23 09:25:13;;;;;;;10.27;2.80;;;23.50;20.70;;;19.85;27.09;96827.84;5009735;28;20120;-68
2021/04/23 09:27:41;;;;;;;8.25;3.10;;;23.70;20.60;;;19.94;28.95;96828.34;5010698;28;20112;-65
2021/04/23 09:30:11;;;;;;;7.88;3.20;;;23.50;20.40;;;20.01;28.90;96824.50;5025284;28;20029;-70
2021/04/23 09:32:39;;;;;;;10.75;3.42;;;23.70;20.80;;;20.21;27.70;96834.06;5019951;28;20029;-67
2021/04/23 09:35:18;;;;;;;6.78;3.00;;;24.10;20.20;;;20.34;26.95;96825.78;5029471;28;20033;-69
2021/04/23 09:37:50;;;;;;;6.78;3.10;;;24.40;20.10;;;20.62;26.86;96833.16;5022891;28;20045;-68
2021/04/23 09:40:23;;;;;;;8.07;3.05;;;24.70;20.30;;;20.86;26.38;96832.06;4996538;28;20075;-68
2021/04/23 09:42:51;;;;;;;11.73;3.30;;;24.80;18.90;;;21.06;26.46;96824.44;5012751;28;20046;-66
2021/04/23 09:45:22;;;;;;;9.40;3.22;;;25.00;19.10;;;21.12;27.79;96830.72;5029011;28;20056;-66
2021/04/23 09:47:47;;;;;;;;;;;24.60;19.80;;;21.15;24.99;96830.22;5028653;28;20541;-66
2021/04/23 09:50:14;;;;;;;6.85;3.25;;;24.70;19.00;;;21.29;27.03;96836.97;5029708;28;19917;-66
2021/04/23 09:52:54;;;;;;;8.43;3.25;;;24.90;18.60;;;21.47;25.03;96819.06;5030239;28;20037;-72
2021/04/23 09:55:27;;;;;;;11.87;3.93;;;25.60;18.70;;;21.75;25.54;96821.72;5028732;28;20125;-71
2021/04/23 09:57:58;;;;;;;5.45;2.97;;;25.90;18.20;;;21.89;25.23;96825.69;5004167;28;20293;-72
2021/04/23 10:00:28;;;;;;;9.90;3.08;;;26.60;18.30;;;22.14;26.27;96821.84;5024592;28;20123;-69
2021/04/23 10:02:55;;;;;;;7.95;3.38;;;27.00;17.50;;;22.41;25.98;96817.44;5029468;28;20047;-69
2021/04/23 10:05:42;;;;;;;9.10;3.20;;;27.00;16.70;;;22.55;24.05;96818.69;5012079;28;20812;-69
2021/04/23 10:08:23;;;;;;;11.68;3.38;;;27.50;17.10;;;22.69;24.00;96816.50;5026959;28;20343;-68
2021/04/23 10:10:54;;;;;;;9.68;3.00;;;27.90;16.20;;;22.79;23.27;96819.28;5028852;28;20029;-67
2021/04/23 10:13:31;;;;;;;8.48;3.03;;;27.90;15.70;;;22.88;22.79;96817.84;5011947;28;20041;-71
2021/04/23 10:15:56;;;;;;;7.30;2.67;;;28.10;15.40;;;22.94;24.87;96818.72;5012046;28;20084;-67
2021/04/23 10:18:22;;;;;;;6.53;2.92;;;28.10;15.00;;;23.10;24.20;96820.53;5026390;28;20038;-68
2021/04/23 10:20:49;;;;;;;6.13;2.78;;;28.70;15.30;;;23.38;23.88;96816.00;5027888;28;20042;-67
2021/04/23 10:23:18;;;;;;;7.20;2.70;;;29.50;15.00;;;23.63;23.70;96815.47;5028147;28;20457;-68
2021/04/23 10:25:44;;;;;;;8.85;3.30;;;29.60;14.40;;;23.88;23.69;96804.13;5011805;28;20038;-70